Time;durP1;ratioP1;P1;durP2;ratioP2;P2;SDS_P1;SDS_P2;PMS_P1;PMS_P2;Temp;Humidity;BMP_temperature;BMP_pressure;BME280_temperature;BME280_humidity;BME280_pressure;Samples;Min_cycle;Max_cycle;Signal;HPM_P1;HPM_P2
2024/01/21 00:01:15;;;;;;;5.87;3.00;;;;;;;-1.89;73.08;102345.19;4984482;28;20498;-86
2024/01/21 00:03:42;;;;;;;5.47;2.70;;;;;;;-1.91;73.81;102338.28;4988077;28;20025;-87
2024/01/21 00:06:07;;;;;;;5.90;2.90;;;;;;;-1.95;73.19;102327.03;4985860;28;20058;-87
2024/01/21 00:08:32;;;;;;;6.10;2.97;;;;;;;-1.98;72.95;102325.22;4975992;28;20034;-87
2024/01/21 00:10:58;;;;;;;5.30;2.90;;;;;;;-1.99;73.49;102320.91;4972924;28;20034;-86
2024/01/21 00:13:23;;;;;;;5.87;2.97;;;;;;;-2.02;72.44;102314.78;4972998;28;20022;-87
2024/01/21 00:15:48;;;;;;;6.17;2.97;;;;;;;-2.05;73.44;102307.84;4987876;28;20018;-87
2024/01/21 00:18:14;;;;;;;6.40;3.00;;;;;;;-2.07;72.52;102299.25;4977681;28;20496;-87
2024/01/21 00:20:39;;;;;;;5.33;2.93;;;;;;;-2.08;73.62;102296.63;4978815;28;20105;-87
2024/01/21 00:23:04;;;;;;;6.37;3.33;;;;;;;-2.10;74.22;102288.00;4986844;28;20048;-87
2024/01/21 00:25:29;;;;;;;5.47;2.93;;;;;;;-2.13;74.41;102289.59;4969010;28;20106;-87
2024/01/21 00:27:55;;;;;;;6.43;3.20;;;;;;;-2.15;73.82;102285.25;4971605;28;20033;-87
2024/01/21 00:30:20;;;;;;;5.83;2.77;;;;;;;-2.16;74.89;102288.59;4971726;28;20023;-87
2024/01/21 00:32:46;;;;;;;6.70;3.10;;;;;;;-2.20;74.68;102292.66;4971744;28;20113;-87
2024/01/21 00:35:11;;;;;;;6.20;3.00;;;;;;;-2.23;75.01;102282.31;4972499;28;20034;-87
2024/01/21 00:37:37;;;;;;;5.00;2.80;;;;;;;-2.25;73.27;102283.03;4974209;28;20059;-87
2024/01/21 00:40:04;;;;;;;6.00;3.30;;;;;;;-2.27;73.38;102279.53;4987544;28;20023;-87
2024/01/21 00:42:29;;;;;;;7.10;3.17;;;;;;;-2.30;73.56;102265.84;4977304;28;20014;-87
2024/01/21 00:44:54;;;;;;;6.50;3.20;;;;;;;-2.32;74.52;102272.53;4984867;28;20560;-87
2024/01/21 00:47:20;;;;;;;5.53;2.70;;;;;;;-2.33;73.45;102275.00;4975337;28;20077;-87
2024/01/21 00:49:46;;;;;;;7.00;3.00;;;;;;;-2.36;74.45;102274.84;4978895;28;20029;-87
2024/01/21 00:52:11;;;;;;;5.20;2.47;;;;;;;-2.37;75.82;102273.09;4976506;28;20027;-87
2024/01/21 00:54:36;;;;;;;5.47;2.90;;;;;;;-2.39;75.53;102269.59;4979281;28;20136;-87
2024/01/21 00:57:02;;;;;;;6.83;3.00;;;;;;;-2.42;76.16;102277.97;4981326;28;20058;-87
2024/01/21 00:59:27;;;;;;;7.93;3.00;;;;;;;-2.43;75.84;102276.22;4978303;28;20019;-87
2024/01/21 01:01:53;;;;;;;7.37;3.10;;;;;;;-2.45;75.29;102262.50;4976397;28;20392;-86
2024/01/21 01:04:18;;;;;;;6.20;3.10;;;;;;;-2.46;75.84;102266.72;4965664;28;20023;-87
2024/01/21 01:06:44;;;;;;;7.40;3.27;;;;;;;-2.47;76.49;102264.97;4985009;28;20081;-87
2024/01/21 01:09:09;;;;;;;6.43;3.00;;;;;;;-2.48;75.51;102270.00;4982921;28;20493;-87
2024/01/21 01:11:35;;;;;;;7.10;3.10;;;;;;;-2.49;75.60;102270.78;4988663;28;20027;-87
2024/01/21 01:14:01;;;;;;;6.17;3.10;;;;;;;-2.48;74.85;102264.91;4992985;28;20027;-87
2024/01/21 01:16:26;;;;;;;6.90;3.13;;;;;;;-2.49;76.11;102256.38;4968429;28;20022;-87
2024/01/21 01:18:51;;;;;;;6.80;3.40;;;;;;;-2.50;76.69;102256.28;4989334;28;20026;-87
2024/01/21 01:21:17;;;;;;;6.53;3.33;;;;;;;-2.54;76.69;102247.63;4984808;28;20570;-87
2024/01/21 01:23:42;;;;;;;7.33;3.20;;;;;;;-2.54;76.57;102239.09;4984803;28;20034;-87
2024/01/21 01:26:07;;;;;;;6.50;3.00;;;;;;;-2.55;76.85;102232.25;4987197;28;20098;-86
2024/01/21 01:28:33;;;;;;;5.67;2.70;;;;;;;-2.57;77.19;102224.53;4974447;28;20412;-87
2024/01/21 01:30:58;;;;;;;5.87;3.00;;;;;;;-2.58;76.48;102211.72;4992347;28;20079;-87
2024/01/21 01:33:24;;;;;;;6.30;3.13;;;;;;;-2.63;76.18;102204.72;4993827;28;20153;-87
2024/01/21 01:35:50;;;;;;;7.87;3.10;;;;;;;-2.66;75.54;102198.59;4992963;28;20468;-87
2024/01/21 01:38:15;;;;;;;6.47;3.33;;;;;;;-2.68;76.38;102197.66;4988060;28;20499;-87
2024/01/21 01:40:41;;;;;;;5.73;2.83;;;;;;;-2.71;76.25;102190.72;4991087;28;20419;-87
2024/01/21 01:43:06;;;;;;;6.93;3.37;;;;;;;-2.72;76.56;102183.00;4992527;28;20026;-87
2024/01/21 01:45:32;;;;;;;7.27;3.23;;;;;;;-2.73;75.95;102179.56;4994049;28;20030;-87
2024/01/21 01:47:58;;;;;;;6.27;2.90;;;;;;;-2.75;76.18;102169.31;4991660;28;20026;-87
2024/01/21 01:50:24;;;;;;;5.50;2.70;;;;;;;-2.74;76.48;102162.56;4988101;28;20033;-87
2024/01/21 01:52:50;;;;;;;5.93;2.90;;;;;;;-2.73;76.81;102169.38;4990226;28;20022;-87
2024/01/21 01:55:17;;;;;;;7.20;3.20;;;;;;;-2.74;76.35;102149.81;4992317;28;20430;-87
2024/01/21 01:57:45;;;;;;;6.37;2.80;;;;;;;-2.71;76.63;102144.84;4988367;28;20034;-87
2024/01/21 02:00:12;;;;;;;6.00;3.00;;;;;;;-2.68;76.71;102145.00;4986911;28;20030;-87
2024/01/21 02:02:40;;;;;;;7.10;3.20;;;;;;;-2.69;76.63;102143.25;4990742;28;20025;-87
2024/01/21 02:05:06;;;;;;;6.20;2.90;;;;;;;-2.68;75.67;102139.91;4987341;28;20033;-88
2024/01/21 02:07:31;;;;;;;6.20;3.03;;;;;;;-2.67;76.46;102135.72;4981729;28;20035;-88
2024/01/21 02:09:57;;;;;;;5.67;2.80;;;;;;;-2.68;76.12;102145.00;4978570;28;20034;-87
2024/01/21 02:12:22;;;;;;;6.77;2.83;;;;;;;-2.67;75.54;102141.66;4974757;28;20030;-87
2024/01/21 02:14:48;;;;;;;6.67;2.77;;;;;;;-2.68;75.23;102129.72;4980248;28;20026;-87
2024/01/21 02:17:13;;;;;;;6.20;2.87;;;;;;;-2.68;74.68;102137.38;4973631;28;20380;-87
2024/01/21 02:19:38;;;;;;;5.60;2.40;;;;;;;-2.68;75.84;102124.63;4979257;28;20093;-87
2024/01/21 02:22:04;;;;;;;4.77;2.50;;;;;;;-2.67;75.93;102118.75;4982118;28;20037;-87
2024/01/21 02:24:31;;;;;;;5.87;2.77;;;;;;;-2.68;75.32;102111.91;4959330;28;20018;-87
2024/01/21 02:26:58;;;;;;;5.20;2.87;;;;;;;-2.70;75.08;102102.44;4962983;28;20026;-87
2024/01/21 02:29:23;;;;;;;6.97;2.83;;;;;;;-2.70;75.68;102100.75;4975534;28;20058;-87
2024/01/21 02:31:51;;;;;;;5.80;2.90;;;;;;;-2.69;75.26;102086.38;4973402;28;20058;-88
2024/01/21 02:34:16;;;;;;;5.93;2.60;;;;;;;-2.68;75.18;102086.44;4973264;28;20031;-87
2024/01/21 02:36:43;;;;;;;6.43;2.80;;;;;;;-2.66;75.55;102086.53;4980303;28;20025;-87
2024/01/21 02:39:08;;;;;;;5.47;2.33;;;;;;;-2.64;74.79;102085.78;4961567;28;20026;-87
2024/01/21 02:41:34;;;;;;;5.43;2.53;;;;;;;-2.61;75.18;102080.84;4974697;28;20030;-87
2024/01/21 02:44:00;;;;;;;5.27;2.77;;;;;;;-2.57;75.18;102075.91;4973149;28;20093;-87
2024/01/21 02:46:26;;;;;;;5.83;2.60;;;;;;;-2.54;74.41;102082.00;4974346;28;20026;-87
2024/01/21 02:48:51;;;;;;;5.80;2.57;;;;;;;-2.51;74.21;102083.81;4962392;28;20026;-87
2024/01/21 02:51:16;;;;;;;4.73;2.17;;;;;;;-2.48;75.65;102068.69;4974809;28;20026;-87
2024/01/21 02:53:42;;;;;;;5.60;2.40;;;;;;;-2.46;75.34;102062.00;4977812;28;20106;-87
2024/01/21 02:56:07;;;;;;;4.67;2.17;;;;;;;-2.44;75.55;102073.13;4962566;28;20029;-87
2024/01/21 02:58:33;;;;;;;5.70;2.43;;;;;;;-2.42;75.02;102060.44;4979091;28;20026;-87
2024/01/21 03:00:58;;;;;;;5.73;2.67;;;;;;;-2.41;72.86;102054.56;4973940;28;20498;-87
2024/01/21 03:03:23;;;;;;;6.07;2.50;;;;;;;-2.38;72.92;102055.56;4975150;28;20509;-87
2024/01/21 03:05:49;;;;;;;4.93;2.30;;;;;;;-2.34;74.74;102047.28;4979592;28;20066;-87
2024/01/21 03:08:17;;;;;;;5.10;2.20;;;;;;;-2.33;73.80;102049.00;4987352;28;20045;-87
2024/01/21 03:10:42;;;;;;;4.37;2.30;;;;;;;-2.28;73.56;102049.22;4971898;28;20089;-87
2024/01/21 03:13:08;;;;;;;3.53;1.93;;;;;;;-2.26;73.61;102046.75;4989000;28;20380;-87
2024/01/21 03:15:33;;;;;;;5.43;2.13;;;;;;;-2.23;74.13;102029.06;4987471;28;20469;-87
2024/01/21 03:17:58;;;;;;;4.43;2.17;;;;;;;-2.20;74.07;102031.72;4991008;28;20113;-87
2024/01/21 03:20:24;;;;;;;4.83;2.17;;;;;;;-2.19;74.10;102024.19;4989781;28;20036;-87
2024/01/21 03:22:50;;;;;;;5.37;2.20;;;;;;;-2.19;72.80;102021.63;4988984;28;20036;-87
2024/01/21 03:25:15;;;;;;;4.27;2.07;;;;;;;-2.16;74.30;102014.13;4971415;28;20031;-88
2024/01/21 03:27:40;;;;;;;4.90;2.10;;;;;;;-2.15;74.60;101992.03;4990282;28;20416;-88
2024/01/21 03:30:06;;;;;;;4.13;2.00;;;;;;;-2.16;73.90;101998.81;4972689;28;20072;-87
2024/01/21 03:32:32;;;;;;;5.03;2.33;;;;;;;-2.16;73.96;102003.03;4985880;28;20030;-87
2024/01/21 03:34:57;;;;;;;3.50;1.80;;;;;;;-2.15;73.81;102002.22;4987915;28;20030;-87
2024/01/21 03:37:22;;;;;;;4.60;2.00;;;;;;;-2.14;72.88;102016.72;4988647;28;20038;-88
2024/01/21 03:39:48;;;;;;;4.03;2.00;;;;;;;-2.11;73.39;102021.97;4972726;28;20026;-87
2024/01/21 03:42:15;;;;;;;4.07;1.93;;;;;;;-2.10;71.97;102023.72;4983311;28;20076;-87
2024/01/21 03:44:41;;;;;;;4.10;1.87;;;;;;;-2.07;72.36;102021.31;4989432;28;20038;-87
2024/01/21 03:47:06;;;;;;;4.60;2.20;;;;;;;-2.04;72.72;102011.22;4986538;28;20056;-87
2024/01/21 03:49:31;;;;;;;3.63;1.80;;;;;;;-2.00;72.56;102018.22;4990057;28;20497;-87
2024/01/21 03:51:57;;;;;;;4.87;2.07;;;;;;;-1.98;72.35;102014.06;4984709;28;20434;-87
2024/01/21 03:54:22;;;;;;;3.63;1.80;;;;;;;-1.98;71.61;102008.09;4989526;28;20083;-87
2024/01/21 03:56:48;;;;;;;3.93;1.97;;;;;;;-1.97;72.32;102004.75;4987461;28;20467;-87
2024/01/21 03:59:13;;;;;;;3.67;1.70;;;;;;;-1.95;72.15;102013.31;4973668;28;20026;-87
2024/01/21 04:01:45;;;;;;;3.63;1.73;;;;;;;-1.90;73.00;102013.56;4983968;28;20027;-87
2024/01/21 04:04:11;;;;;;;3.93;2.00;;;;;;;-1.86;72.58;102010.31;4984532;28;20117;-87
2024/01/21 04:06:43;;;;;;;4.87;1.70;;;;;;;-1.83;72.20;102007.91;4988617;28;20046;-87
2024/01/21 04:09:10;;;;;;;4.70;1.90;;;;;;;-1.80;72.74;101991.88;4972289;28;20113;-87
2024/01/21 04:11:35;;;;;;;4.50;2.20;;;;;;;-1.78;71.77;101964.72;4975210;28;20037;-87
2024/01/21 04:14:00;;;;;;;3.77;1.90;;;;;;;-1.78;70.58;101950.31;4977449;28;20491;-88
2024/01/21 04:16:26;;;;;;;4.13;1.83;;;;;;;-1.76;70.85;101945.25;4985062;28;20155;-87
2024/01/21 04:18:51;;;;;;;4.20;1.80;;;;;;;-1.76;71.39;101946.16;4968313;28;20031;-87
2024/01/21 04:21:16;;;;;;;4.60;2.10;;;;;;;-1.77;71.34;101936.75;4975723;28;20093;-88
2024/01/21 04:23:42;;;;;;;4.07;1.90;;;;;;;-1.75;70.48;101950.44;4990162;28;20022;-87
2024/01/21 04:26:07;;;;;;;4.47;2.00;;;;;;;-1.73;70.07;101945.41;4972443;28;20026;-87
2024/01/21 04:28:32;;;;;;;3.67;2.00;;;;;;;-1.72;72.00;101942.94;4977808;28;20038;-87
2024/01/21 04:30:58;;;;;;;3.77;1.83;;;;;;;-1.72;70.63;101947.16;4985075;28;20034;-87
2024/01/21 04:33:23;;;;;;;5.33;1.70;;;;;;;-1.70;71.87;101942.97;4981596;28;20075;-87
2024/01/21 04:35:48;;;;;;;4.17;1.97;;;;;;;-1.69;70.85;101948.13;4975381;28;20042;-87
2024/01/21 04:38:14;;;;;;;4.50;2.00;;;;;;;-1.64;72.00;101944.91;4983437;28;20045;-87
2024/01/21 04:40:39;;;;;;;4.90;2.40;;;;;;;-1.63;71.01;101941.56;4984383;28;20034;-87
2024/01/21 04:43:05;;;;;;;4.10;2.00;;;;;;;-1.63;71.04;101929.69;4987429;28;20034;-87
2024/01/21 04:45:30;;;;;;;5.20;2.30;;;;;;;-1.61;71.36;101928.03;4976421;28;20031;-87
2024/01/21 04:47:56;;;;;;;5.43;2.10;;;;;;;-1.59;71.03;101916.22;4989662;28;20022;-87
2024/01/21 04:50:21;;;;;;;4.37;2.00;;;;;;;-1.56;71.28;101898.50;4980372;28;20030;-87
2024/01/21 04:52:46;;;;;;;4.80;2.23;;;;;;;-1.53;70.72;101882.44;4984493;28;20075;-87
2024/01/21 04:55:12;;;;;;;6.27;2.47;;;;;;;-1.47;71.00;101879.28;4975772;28;20472;-87
2024/01/21 04:57:38;;;;;;;5.03;2.47;;;;;;;-1.46;71.44;101876.78;4973899;28;20543;-87
2024/01/21 05:00:05;;;;;;;5.60;2.70;;;;;;;-1.41;71.26;101874.41;4976855;28;20085;-87
2024/01/21 05:02:31;;;;;;;5.13;2.40;;;;;;;-1.37;70.63;101866.94;4978626;28;20023;-88
2024/01/21 05:04:57;;;;;;;5.07;2.53;;;;;;;-1.34;71.04;101860.19;4980588;28;20031;-87
2024/01/21 05:07:22;;;;;;;6.10;2.90;;;;;;;-1.29;70.31;101853.59;4988512;28;20566;-87
2024/01/21 05:09:47;;;;;;;6.17;3.03;;;;;;;-1.28;70.27;101845.13;4993127;28;20030;-86
2024/01/21 05:12:13;;;;;;;5.60;2.50;;;;;;;-1.25;70.37;101860.59;4988676;28;20090;-87
2024/01/21 05:14:38;;;;;;;6.17;3.10;;;;;;;-1.23;69.99;101847.06;4990239;28;20030;-87
2024/01/21 05:17:03;;;;;;;5.77;3.00;;;;;;;-1.20;70.33;101841.22;4973713;28;20026;-87
2024/01/21 05:19:29;;;;;;;6.77;3.40;;;;;;;-1.15;70.09;101847.34;4992712;28;20032;-87
2024/01/21 05:21:54;;;;;;;6.13;2.90;;;;;;;-1.13;70.13;101860.19;4988561;28;20058;-87
2024/01/21 05:24:19;;;;;;;6.60;3.20;;;;;;;-1.11;69.85;101858.59;4990253;28;20109;-88
2024/01/21 05:26:45;;;;;;;5.70;2.73;;;;;;;-1.07;70.84;101879.19;4987849;28;20054;-87
2024/01/21 05:29:12;;;;;;;7.77;3.47;;;;;;;-1.04;70.62;101886.06;4989949;28;20081;-88
2024/01/21 05:31:38;;;;;;;6.93;3.40;;;;;;;-1.01;70.31;101896.41;4973770;28;20038;-87
2024/01/21 05:34:03;;;;;;;7.30;3.50;;;;;;;-0.96;69.94;101881.25;4986464;28;20039;-87
2024/01/21 05:36:28;;;;;;;6.77;3.73;;;;;;;-0.93;70.60;101868.63;4974548;28;20030;-87
2024/01/21 05:38:54;;;;;;;7.50;3.77;;;;;;;-0.88;70.54;101851.78;4991834;28;20030;-87
2024/01/21 05:41:19;;;;;;;7.33;3.67;;;;;;;-0.81;70.54;101843.53;4988643;28;20106;-87
2024/01/21 05:43:44;;;;;;;6.80;3.30;;;;;;;-0.75;70.47;101837.75;4988566;28;20031;-87
2024/01/21 05:46:10;;;;;;;8.30;3.77;;;;;;;-0.68;69.50;101833.75;4986622;28;20424;-88
2024/01/21 05:48:35;;;;;;;8.03;3.90;;;;;;;-0.61;69.31;101840.84;4993479;28;20068;-88
2024/01/21 05:51:01;;;;;;;8.90;3.87;;;;;;;-0.56;69.29;101839.31;4991574;28;20042;-87
2024/01/21 05:53:26;;;;;;;7.37;3.90;;;;;;;-0.54;69.26;101836.81;4974051;28;20033;-87
2024/01/21 05:55:51;;;;;;;7.47;3.83;;;;;;;-0.50;69.36;101824.19;4986627;28;20026;-87
2024/01/21 05:58:17;;;;;;;8.63;3.67;;;;;;;-0.49;68.66;101833.59;4984756;28;20030;-87
2024/01/21 06:00:42;;;;;;;8.00;4.37;;;;;;;-0.44;68.36;101845.69;4987150;28;20053;-87
2024/01/21 06:03:07;;;;;;;8.33;3.90;;;;;;;-0.42;68.81;101849.19;4987319;28;20384;-88
2024/01/21 06:05:32;;;;;;;7.90;4.03;;;;;;;-0.39;68.24;101842.47;4986273;28;20472;-88
2024/01/21 06:07:58;;;;;;;8.13;3.80;;;;;;;-0.38;68.58;101840.81;4984454;28;20476;-87
2024/01/21 06:10:23;;;;;;;9.30;4.17;;;;;;;-0.35;68.26;101848.59;4990772;28;20030;-88
2024/01/21 06:12:48;;;;;;;6.80;3.70;;;;;;;-0.35;68.68;101849.44;4991403;28;20037;-87
2024/01/21 06:15:14;;;;;;;8.30;4.40;;;;;;;-0.31;67.67;101835.06;4989541;28;20030;-87
2024/01/21 06:17:39;;;;;;;8.70;4.57;;;;;;;-0.28;67.55;101819.84;4985680;28;20038;-88
2024/01/21 06:20:07;;;;;;;7.93;3.90;;;;;;;-0.27;67.63;101806.25;4973769;28;20480;-88
2024/01/21 06:22:32;;;;;;;7.77;4.33;;;;;;;-0.24;67.29;101819.16;4974938;28;20026;-87
2024/01/21 06:24:57;;;;;;;8.93;4.20;;;;;;;-0.22;66.74;101834.53;4989808;28;20049;-87
2024/01/21 06:27:23;;;;;;;8.50;4.03;;;;;;;-0.17;67.47;101833.00;4984047;28;20034;-88
2024/01/21 06:29:48;;;;;;;8.50;4.00;;;;;;;-0.14;67.50;101852.69;4986674;28;20052;-87
2024/01/21 06:32:13;;;;;;;6.60;3.50;;;;;;;-0.11;66.89;101847.69;4973668;28;20037;-88
2024/01/21 06:34:39;;;;;;;9.10;4.10;;;;;;;-0.06;66.33;101871.75;4989865;28;20085;-88
2024/01/21 06:37:04;;;;;;;7.37;4.00;;;;;;;-0.05;66.17;101870.94;4986659;28;20030;-86
2024/01/21 06:39:30;;;;;;;8.70;4.23;;;;;;;-0.03;66.36;101852.25;4973305;28;20472;-87
2024/01/21 06:41:55;;;;;;;7.27;3.57;;;;;;;0.01;65.30;101855.78;4989345;28;20089;-88
2024/01/21 06:44:21;;;;;;;7.80;3.80;;;;;;;0.03;66.15;101859.25;4991517;28;20022;-87
2024/01/21 06:46:46;;;;;;;9.67;4.20;;;;;;;0.09;65.47;101859.47;4983477;28;20555;-86
2024/01/21 06:49:12;;;;;;;7.60;3.67;;;;;;;0.11;65.75;101865.53;4991073;28;20395;-88
2024/01/21 06:51:46;;;;;;;8.57;4.40;;;;;;;0.12;64.94;101862.16;4990863;28;20022;-87
2024/01/21 06:54:14;;;;;;;7.67;4.00;;;;;;;0.12;65.15;101851.91;4970447;28;20030;-88
2024/01/21 06:56:40;;;;;;;8.40;4.13;;;;;;;0.17;64.46;101866.56;4985178;28;20026;-87
2024/01/21 06:59:05;;;;;;;9.33;4.27;;;;;;;0.19;65.03;101877.69;4991947;28;20455;-87
2024/01/21 07:01:30;;;;;;;7.80;4.00;;;;;;;0.21;63.51;101876.06;4991273;28;20693;-88
2024/01/21 07:03:56;;;;;;;8.10;4.20;;;;;;;0.21;64.40;101874.38;4988095;28;20068;-87
2024/01/21 07:06:21;;;;;;;7.47;4.00;;;;;;;0.22;64.24;101873.56;4985018;28;20051;-87
2024/01/21 07:08:47;;;;;;;8.47;3.80;;;;;;;0.24;64.60;101850.56;4973184;28;20041;-87
2024/01/21 07:11:13;;;;;;;7.13;3.70;;;;;;;0.27;64.23;101843.00;4973419;28;20457;-86
2024/01/21 07:13:38;;;;;;;8.80;4.17;;;;;;;0.30;64.01;101835.44;4974969;28;20098;-86
2024/01/21 07:16:04;;;;;;;9.07;3.93;;;;;;;0.31;64.03;101829.50;4973798;28;20080;-87
2024/01/21 07:18:29;;;;;;;7.87;4.10;;;;;;;0.31;63.42;101806.47;4973090;28;20027;-87
2024/01/21 07:20:55;;;;;;;8.77;4.20;;;;;;;0.34;63.23;101811.69;4956697;28;20074;-87
2024/01/21 07:23:20;;;;;;;7.77;3.70;;;;;;;0.35;62.78;101797.19;4974703;28;20110;-87
2024/01/21 07:25:47;;;;;;;9.03;3.97;;;;;;;0.33;63.40;101807.38;4988927;28;20113;-87
2024/01/21 07:28:13;;;;;;;7.63;3.90;;;;;;;0.40;62.89;101806.75;4975276;28;20030;-88
2024/01/21 07:30:38;;;;;;;8.53;4.10;;;;;;;0.41;62.69;101811.03;4978888;28;20046;-87
2024/01/21 07:33:03;;;;;;;10.60;4.40;;;;;;;0.42;62.34;101819.59;4983854;28;20635;-86
2024/01/21 07:35:29;;;;;;;10.07;4.50;;;;;;;0.40;62.00;101806.75;4958909;28;20031;-87
2024/01/21 07:37:55;;;;;;;9.47;4.57;;;;;;;0.40;62.24;101826.38;4981522;28;20061;-87
2024/01/21 07:40:20;;;;;;;8.47;3.80;;;;;;;0.37;63.05;101816.03;4974523;28;20031;-88
2024/01/21 07:42:46;;;;;;;8.20;4.70;;;;;;;0.33;62.76;101820.19;4974687;28;20031;-87
2024/01/21 07:45:11;;;;;;;7.83;3.80;;;;;;;0.37;62.78;101821.13;4973497;28;20035;-86
2024/01/21 07:47:37;;;;;;;8.20;4.50;;;;;;;0.36;62.58;101810.00;4966884;28;20062;-87
2024/01/21 07:50:04;;;;;;;9.37;4.20;;;;;;;0.37;62.20;101798.09;4966178;28;20034;-87
2024/01/21 07:52:30;;;;;;;8.67;3.83;;;;;;;0.36;62.51;101796.38;4974888;28;20025;-88
2024/01/21 07:54:55;;;;;;;7.37;3.80;;;;;;;0.39;62.30;101809.25;4972863;28;20046;-87
2024/01/21 07:57:20;;;;;;;7.50;3.93;;;;;;;0.39;62.14;101825.47;4972396;28;20023;-88
2024/01/21 07:59:45;;;;;;;7.50;3.90;;;;;;;0.40;62.03;101849.41;4972832;28;20023;-87
2024/01/21 08:02:11;;;;;;;8.10;4.13;;;;;;;0.39;62.05;101858.75;4975731;28;20038;-87
2024/01/21 08:04:36;;;;;;;8.23;4.20;;;;;;;0.38;62.32;101867.25;4981447;28;20030;-87
2024/01/21 08:07:02;;;;;;;8.87;4.50;;;;;;;0.40;62.44;101868.19;4945556;28;20083;-87
2024/01/21 08:09:28;;;;;;;7.27;3.80;;;;;;;0.38;62.51;101864.69;4953875;28;20106;-88
2024/01/21 08:11:53;;;;;;;8.53;4.13;;;;;;;0.40;63.05;101892.94;4955467;28;20380;-87
2024/01/21 08:14:18;;;;;;;6.67;3.57;;;;;;;0.41;62.64;101907.47;4939077;28;20033;-87
2024/01/21 08:16:44;;;;;;;10.20;4.00;;;;;;;0.45;61.78;101917.84;4953307;28;20038;-87
2024/01/21 08:19:09;;;;;;;8.87;4.33;;;;;;;0.48;61.84;101905.97;4954594;28;20027;-87
2024/01/21 08:21:34;;;;;;;10.67;3.80;;;;;;;0.49;62.65;101912.84;4955174;28;20123;-88
2024/01/21 08:24:00;;;;;;;8.17;4.27;;;;;;;0.61;61.35;101913.22;4956518;28;20066;-86
2024/01/21 08:26:25;;;;;;;6.47;3.70;;;;;;;0.61;61.56;101905.56;4954114;28;20035;-87
2024/01/21 08:28:50;;;;;;;7.23;3.67;;;;;;;0.69;61.76;101901.53;4955344;28;20078;-87
2024/01/21 08:31:16;;;;;;;7.37;3.90;;;;;;;0.73;62.07;101905.09;4937399;29;20042;-87
2024/01/21 08:33:42;;;;;;;8.37;3.90;;;;;;;0.81;61.39;101905.31;4961413;28;20027;-87
2024/01/21 08:36:08;;;;;;;7.87;4.03;;;;;;;0.84;61.58;101902.88;4957264;28;20420;-87
2024/01/21 08:38:33;;;;;;;7.23;4.00;;;;;;;0.86;60.89;101896.06;4938101;28;20058;-87
2024/01/21 08:40:58;;;;;;;8.73;3.93;;;;;;;0.87;61.37;101895.25;4954960;28;20511;-88
2024/01/21 08:43:24;;;;;;;9.07;4.40;;;;;;;0.89;61.07;101891.06;4953269;28;20081;-87
2024/01/21 08:45:49;;;;;;;7.00;3.77;;;;;;;0.88;61.83;101890.19;4957755;28;20102;-88
2024/01/21 08:48:15;;;;;;;8.70;3.80;;;;;;;0.89;61.39;101902.19;4953383;28;20039;-88
2024/01/21 08:50:40;;;;;;;7.23;3.40;;;;;;;0.89;62.01;101879.13;4956118;28;20023;-88
2024/01/21 08:53:06;;;;;;;8.27;4.30;;;;;;;0.94;61.73;101901.47;4965477;28;20090;-88
2024/01/21 08:55:31;;;;;;;6.83;3.80;;;;;;;0.95;62.14;101891.25;4952905;28;20074;-87
2024/01/21 08:57:57;;;;;;;7.50;3.83;;;;;;;0.98;62.42;101909.28;4953855;28;20047;-88
2024/01/21 09:00:22;;;;;;;7.73;3.70;;;;;;;1.02;62.07;101902.56;4956174;28;20030;-89
2024/01/21 09:02:48;;;;;;;7.33;3.80;;;;;;;1.03;62.69;101923.09;4962023;28;20027;-88
2024/01/21 09:05:13;;;;;;;7.97;3.90;;;;;;;1.06;62.81;101920.63;4952825;29;20393;-88
2024/01/21 09:07:39;;;;;;;8.03;3.73;;;;;;;1.13;63.27;101905.44;4956086;28;20034;-88
2024/01/21 09:10:05;;;;;;;7.77;3.97;;;;;;;1.16;63.55;101911.53;4961121;28;20392;-88
2024/01/21 09:12:31;;;;;;;7.73;3.70;;;;;;;1.24;63.88;101893.81;4950973;28;20481;-87
2024/01/21 09:14:56;;;;;;;8.20;3.30;;;;;;;1.25;64.14;101889.59;4956019;28;20033;-88
2024/01/21 09:17:21;;;;;;;6.47;3.77;;;;;;;1.28;65.34;101897.38;4955720;28;20037;-87
2024/01/21 09:19:47;;;;;;;7.93;3.90;;;;;;;1.32;65.17;101894.94;4962163;28;20070;-88
2024/01/21 09:22:12;;;;;;;7.57;3.50;;;;;;;1.32;65.79;101915.44;4956332;28;20027;-87
2024/01/21 09:24:38;;;;;;;8.40;3.60;;;;;;;1.34;65.85;101924.06;4958198;28;20119;-87
2024/01/21 09:27:03;;;;;;;8.53;3.83;;;;;;;1.35;66.20;101920.66;4963046;28;20465;-87
2024/01/21 09:29:29;;;;;;;8.63;3.93;;;;;;;1.39;66.87;101920.72;4957246;28;20030;-89
2024/01/21 09:31:58;;;;;;;7.60;3.70;;;;;;;1.40;67.85;101930.16;4956594;28;20023;-88
2024/01/21 09:34:23;;;;;;;7.50;4.07;;;;;;;1.41;68.02;101931.91;4959686;28;20042;-88
2024/01/21 09:36:51;;;;;;;8.23;4.20;;;;;;;1.41;69.26;101922.53;4954277;28;20034;-88
2024/01/21 09:39:17;;;;;;;8.10;3.83;;;;;;;1.42;69.84;101926.84;4958617;28;20027;-87
2024/01/21 09:41:50;;;;;;;10.27;4.30;;;;;;;1.45;70.27;101934.59;4962153;28;20020;-88
2024/01/21 09:44:24;;;;;;;8.73;3.67;;;;;;;1.47;71.18;101943.22;4952024;28;20022;-88
2024/01/21 09:46:55;;;;;;;7.23;3.50;;;;;;;1.52;71.24;101933.13;4943225;28;20018;-87
2024/01/21 09:49:21;;;;;;;7.37;3.77;;;;;;;1.51;71.51;101946.75;4959198;28;20030;-87
2024/01/21 09:51:49;;;;;;;7.70;3.80;;;;;;;1.50;71.87;101947.59;4960499;28;20106;-88
2024/01/21 09:54:14;;;;;;;6.30;3.77;;;;;;;1.49;73.36;101958.66;4947062;28;20038;-88
2024/01/21 09:56:41;;;;;;;6.87;3.50;;;;;;;1.51;73.04;101972.41;4945989;29;20027;-88
2024/01/21 09:59:08;;;;;;;9.20;4.10;;;;;;;1.50;74.14;101960.41;4954805;28;20023;-87
2024/01/21 10:01:36;;;;;;;7.87;4.13;;;;;;;1.48;75.00;101957.78;4947016;28;20670;-88
2024/01/21 10:04:01;;;;;;;7.77;4.03;;;;;;;1.49;74.96;101956.97;4959319;28;20177;-87
2024/01/21 10:06:27;;;;;;;7.37;4.30;;;;;;;1.49;76.25;101940.72;4954515;28;20126;-87
2024/01/21 10:08:52;;;;;;;7.83;4.17;;;;;;;1.49;76.98;101943.28;4963810;28;20030;-87
2024/01/21 10:11:18;;;;;;;7.47;4.07;;;;;;;1.52;77.30;101938.25;4973579;28;20026;-87
2024/01/21 10:13:45;;;;;;;7.80;4.30;;;;;;;1.52;77.86;101928.00;4973497;28;20088;-87
2024/01/21 10:16:10;;;;;;;6.30;3.60;;;;;;;1.49;78.65;101930.47;4972800;28;20103;-87
2024/01/21 10:18:36;;;;;;;7.40;4.10;;;;;;;1.52;78.58;101926.28;4973412;28;20030;-87
2024/01/21 10:21:05;;;;;;;7.87;4.10;;;;;;;1.56;78.68;101929.78;4975774;28;20030;-88
2024/01/21 10:23:31;;;;;;;8.53;4.43;;;;;;;1.60;79.58;101934.19;4973493;28;20031;-87
2024/01/21 10:25:57;;;;;;;7.10;4.03;;;;;;;1.64;79.29;101937.72;4973095;28;20146;-87
2024/01/21 10:28:22;;;;;;;7.23;4.27;;;;;;;1.64;80.37;101923.19;4972334;28;20102;-87
2024/01/21 10:30:48;;;;;;;9.83;4.33;;;;;;;1.72;81.18;101912.28;4972221;28;20026;-87
2024/01/21 10:33:14;;;;;;;7.87;4.40;;;;;;;1.71;81.77;101887.47;4971127;28;20058;-88
2024/01/21 10:35:42;;;;;;;11.73;4.70;;;;;;;1.71;82.79;101905.44;4972269;28;20062;-88
2024/01/21 10:38:11;;;;;;;8.00;4.37;;;;;;;1.72;83.47;101899.44;4967131;28;20408;-87
2024/01/21 10:40:43;;;;;;;9.03;4.00;;;;;;;1.78;84.41;101899.63;4972830;28;20109;-87
2024/01/21 10:43:12;;;;;;;8.10;4.00;;;;;;;1.76;83.98;101901.28;4971003;28;20078;-87
2024/01/21 10:45:37;;;;;;;7.33;4.23;;;;;;;1.77;84.86;101896.22;4972828;28;20077;-87
2024/01/21 10:48:04;;;;;;;6.83;3.87;;;;;;;1.77;85.04;101901.34;4973563;28;20091;-87
2024/01/21 10:50:29;;;;;;;8.83;4.63;;;;;;;1.78;85.42;101897.06;4961339;28;20045;-87
2024/01/21 10:52:55;;;;;;;8.83;4.57;;;;;;;1.75;85.39;101892.72;4975320;28;20026;-87
2024/01/21 10:55:21;;;;;;;8.27;4.30;;;;;;;1.77;85.89;101883.38;4978478;28;20023;-87
2024/01/21 10:57:50;;;;;;;8.80;4.77;;;;;;;1.80;85.77;101872.31;4976254;28;20093;-87
2024/01/21 11:00:17;;;;;;;10.30;4.37;;;;;;;1.81;85.37;101871.50;4960889;28;21090;-87
2024/01/21 11:03:24;;;;;;;10.00;4.50;;;;;;;1.82;85.45;101873.22;4974221;28;20103;-89
2024/01/21 11:05:54;;;;;;;7.07;4.10;;;;;;;1.85;85.50;101860.50;4970557;28;20050;-88
2024/01/21 11:08:23;;;;;;;8.40;4.57;;;;;;;1.87;85.24;101853.72;4934806;29;20083;-88
2024/01/21 11:10:56;;;;;;;8.57;4.57;;;;;;;1.91;85.15;101847.81;4953582;28;20476;-88
2024/01/21 11:13:45;;;;;;;9.33;4.43;;;;;;;1.95;84.94;101851.34;4943434;28;20031;-88
2024/01/21 11:16:26;;;;;;;6.90;4.13;;;;;;;2.01;84.67;101858.34;4970556;28;20070;-87
2024/01/21 11:18:58;;;;;;;7.93;4.47;;;;;;;2.04;84.20;101836.16;4957290;28;20042;-86
2024/01/21 11:21:27;;;;;;;7.97;4.27;;;;;;;2.13;83.85;101861.22;4952298;28;20023;-87
2024/01/21 11:24:09;;;;;;;9.17;4.90;;;;;;;2.19;84.03;101876.78;4955720;28;20034;-87